createdAt,value
2016-02-15T00:01:02.269Z,0.81
2016-02-15T00:01:46.318Z,0.82
2016-02-15T00:03:56.340Z,0.77
2016-02-15T00:04:56.482Z,0.81
2016-02-15T00:05:56.375Z,0.77
2016-02-15T00:07:09.131Z,0.84
2016-02-15T00:07:56.381Z,0.78
2016-02-15T00:09:22.090Z,0.76
2016-02-15T00:10:03.340Z,0.76
2016-02-15T00:11:19.579Z,0.78
2016-02-15T00:12:16.364Z,0.76
2016-02-15T00:13:03.489Z,0.89
2016-02-15T00:14:03.522Z,0.86
2016-02-15T00:15:03.509Z,0.92
2016-02-15T00:16:03.528Z,0.94
2016-02-15T00:17:03.531Z,0.89
2016-02-15T00:18:04.955Z,0.91
2016-02-15T00:19:03.567Z,0.95
2016-02-15T00:20:03.585Z,0.89
2016-02-15T00:21:09.856Z,0.89
2016-02-15T00:22:09.890Z,0.94
2016-02-15T00:23:16.361Z,0.96
2016-02-15T00:24:03.658Z,0.94
2016-02-15T00:25:05.052Z,0.94
2016-02-15T00:26:03.680Z,1.04
2016-02-15T00:27:03.666Z,0.96
2016-02-15T00:28:03.700Z,1.02
2016-02-15T00:29:03.688Z,0.94
2016-02-15T00:30:03.705Z,1.03
2016-02-15T00:31:03.724Z,0.99
2016-02-15T00:32:03.758Z,1
2016-02-15T00:33:05.151Z,0.95
2016-02-15T00:34:03.749Z,0.92
2016-02-15T00:35:16.534Z,0.91
2016-02-15T00:36:03.784Z,1.06
2016-02-15T00:37:03.804Z,1.02
2016-02-15T00:38:16.558Z,0.92
2016-02-15T00:39:03.823Z,0.94
2016-02-15T00:40:16.689Z,0.92
2016-02-15T00:41:03.860Z,0.91
2016-02-15T00:42:03.910Z,1
2016-02-15T00:43:10.197Z,0.95
2016-02-15T00:44:04.493Z,0.94
2016-02-15T00:45:03.903Z,0.99
2016-02-15T00:46:04.578Z,0.99
2016-02-15T00:47:16.675Z,0.94
2016-02-15T00:48:16.679Z,1.02
2016-02-15T00:49:23.150Z,0.95
2016-02-15T00:50:23.184Z,0.94
2016-02-15T00:51:03.981Z,1
2016-02-15T00:53:13.552Z,1.06
2016-02-15T00:54:13.586Z,1.09
2016-02-15T00:55:13.572Z,1.13
2016-02-15T00:56:26.310Z,1.16
2016-02-15T00:57:13.594Z,1.12
2016-02-15T00:58:26.347Z,1.09
2016-02-15T00:59:13.615Z,1.1
2016-02-15T01:00:13.648Z,1.18
2016-02-15T01:01:13.652Z,1.16
2016-02-15T01:02:19.919Z,1.18
2016-02-15T01:03:13.703Z,1.2
2016-02-15T01:04:26.409Z,1.16
2016-02-15T01:05:13.740Z,1.13
2016-02-15T01:06:13.712Z,1.14
2016-02-15T01:07:13.824Z,1.18
2016-02-15T01:08:20.014Z,1.21
2016-02-15T01:09:13.798Z,1.18
2016-02-15T01:10:13.770Z,1.18
2016-02-15T01:11:13.787Z,1.25
2016-02-15T01:12:20.085Z,1.24
2016-02-15T01:13:13.797Z,1.16
2016-02-15T01:14:13.772Z,1.24
2016-02-15T01:15:20.077Z,1.21
2016-02-15T01:16:13.802Z,1.25
2016-02-15T01:17:26.357Z,1.16
2016-02-15T01:18:15.231Z,1.28
2016-02-15T01:19:14.479Z,1.28
2016-02-15T01:20:13.914Z,1.3
2016-02-15T01:21:26.585Z,1.25
2016-02-15T01:22:14.568Z,1.24
2016-02-15T01:23:13.866Z,1.28
2016-02-15T01:24:13.868Z,1.27
2016-02-15T01:25:20.134Z,1.31
2016-02-15T01:26:13.900Z,1.32
2016-02-15T01:27:13.902Z,1.31
2016-02-15T01:28:26.654Z,1.38
2016-02-15T01:29:33.125Z,1.32
2016-02-15T01:30:26.675Z,1.34
2016-02-15T01:31:39.630Z,1.43
2016-02-15T01:32:13.977Z,1.34
2016-02-15T01:33:14.166Z,1.32
2016-02-15T01:34:13.997Z,1.36
2016-02-15T01:35:20.907Z,1.34
2016-02-15T01:36:14.018Z,1.39
2016-02-15T01:37:33.239Z,1.39
2016-02-15T01:38:17.118Z,1.4
2016-02-15T01:39:29.854Z,1.32
2016-02-15T01:40:48.482Z,1.42
2016-02-15T01:41:17.173Z,1.34
2016-02-15T01:42:17.159Z,1.4
2016-02-15T01:43:29.928Z,1.46
2016-02-15T01:44:17.212Z,1.45
2016-02-15T01:45:17.230Z,1.46
2016-02-15T01:46:24.076Z,1.46
2016-02-15T01:47:17.845Z,1.36
2016-02-15T01:48:17.253Z,1.45
2016-02-15T01:49:42.929Z,1.46
2016-02-15T01:50:26.822Z,1.39
2016-02-15T01:51:26.808Z,1.45
2016-02-15T01:52:26.827Z,1.4
2016-02-15T01:53:28.345Z,1.45
2016-02-15T01:54:26.863Z,1.45
2016-02-15T01:55:26.850Z,1.45
2016-02-15T01:56:26.885Z,1.46
2016-02-15T01:57:33.168Z,1.42
2016-02-15T01:58:26.906Z,1.43
2016-02-15T01:59:26.908Z,1.4
2016-02-15T02:00:28.379Z,1.42
2016-02-15T02:01:33.211Z,1.43
2016-02-15T02:02:26.963Z,1.43
2016-02-15T02:03:39.715Z,1.42
2016-02-15T02:04:26.985Z,1.46
2016-02-15T02:05:46.362Z,1.46
2016-02-15T02:06:33.115Z,1.36
2016-02-15T02:07:57.415Z,1.48
2016-02-15T02:08:31.714Z,1.39
2016-02-15T02:09:31.763Z,1.36
2016-02-15T02:10:38.016Z,1.49
2016-02-15T02:11:31.862Z,1.39
2016-02-15T02:12:31.803Z,1.34
2016-02-15T02:13:31.821Z,1.36
2016-02-15T02:14:31.823Z,1.38
2016-02-15T02:15:44.545Z,1.36
2016-02-15T02:16:31.861Z,1.34
2016-02-15T02:17:31.863Z,1.36
2016-02-15T02:18:38.131Z,1.38
2016-02-15T02:19:31.931Z,1.3
2016-02-15T02:20:31.886Z,1.31
2016-02-15T02:21:33.342Z,1.34
2016-02-15T02:22:31.923Z,1.39
2016-02-15T02:23:31.926Z,1.39
2016-02-15T02:24:31.944Z,1.38
2016-02-15T02:25:31.963Z,1.31
2016-02-15T02:26:31.996Z,1.36
2016-02-15T02:27:33.391Z,1.32
2016-02-15T02:28:32.611Z,1.3
2016-02-15T02:29:32.004Z,1.32
2016-02-15T02:30:32.024Z,1.3
2016-02-15T02:31:32.057Z,1.3
2016-02-15T02:32:32.060Z,1.28
2016-02-15T02:33:32.077Z,1.34
2016-02-15T02:34:32.143Z,1.36
2016-02-15T02:35:32.099Z,1.34
2016-02-15T02:36:44.836Z,1.3
2016-02-15T02:37:32.120Z,1.32
2016-02-15T02:38:44.888Z,1.28
2016-02-15T02:39:38.423Z,1.28
2016-02-15T02:40:51.378Z,1.25
2016-02-15T02:41:32.787Z,1.25
2016-02-15T02:42:57.868Z,1.28
2016-02-15T02:43:44.948Z,1.3
2016-02-15T02:44:32.217Z,1.25
2016-02-15T02:45:51.485Z,1.27
2016-02-15T02:46:32.862Z,1.32
2016-02-15T02:47:57.912Z,1.25
2016-02-15T02:48:41.822Z,1.24
2016-02-15T02:49:41.793Z,1.24
2016-02-15T02:50:48.092Z,1.24
2016-02-15T02:51:41.830Z,1.27
2016-02-15T02:52:54.566Z,1.21
2016-02-15T02:53:48.194Z,1.25
2016-02-15T02:54:41.869Z,1.24
2016-02-15T02:55:43.308Z,1.25
2016-02-15T02:56:41.905Z,1.27
2016-02-15T02:57:41.924Z,1.24
2016-02-15T02:58:48.302Z,1.21
2016-02-15T02:59:41.944Z,1.13
2016-02-15T03:00:43.369Z,1.16
2016-02-15T03:01:43.388Z,1.22
2016-02-15T03:02:41.968Z,1.12
2016-02-15T03:03:42.002Z,1.07
2016-02-15T03:04:42.020Z,1.18
2016-02-15T03:05:43.446Z,1.24
2016-02-15T03:06:54.760Z,1.21
2016-02-15T03:07:42.029Z,1.28
2016-02-15T03:09:01.266Z,1.13
2016-02-15T03:09:42.706Z,1.16
2016-02-15T03:11:07.802Z,1.12
2016-02-15T03:11:42.118Z,1.13
2016-02-15T03:12:42.120Z,1.12
2016-02-15T03:13:48.404Z,1.2
2016-02-15T03:14:42.750Z,1.13
2016-02-15T03:15:54.895Z,1.13
2016-02-15T03:16:54.912Z,1.21
2016-02-15T03:17:42.181Z,1.12
2016-02-15T03:18:42.198Z,1.13
2016-02-15T03:19:54.936Z,1.13
2016-02-15T03:20:42.220Z,1.1
2016-02-15T03:22:01.535Z,1.07
2016-02-15T03:22:54.975Z,1.06
2016-02-15T03:23:42.259Z,1.09
2016-02-15T03:24:42.309Z,1.13
2016-02-15T03:25:54.858Z,1.09
2016-02-15T03:26:42.314Z,1.13
2016-02-15T03:27:42.302Z,1.07
2016-02-15T03:28:42.320Z,1.14
2016-02-15T03:29:42.338Z,1.06
2016-02-15T03:30:42.340Z,1.12
2016-02-15T03:31:55.109Z,1.18
2016-02-15T03:32:55.111Z,1.1
2016-02-15T03:33:42.396Z,1.14
2016-02-15T03:34:42.398Z,1.18
2016-02-15T03:36:08.073Z,1.14
2016-02-15T03:36:42.435Z,1.12
2016-02-15T03:37:42.453Z,1.21
2016-02-15T03:38:42.659Z,1.2
2016-02-15T03:39:42.459Z,1.2
2016-02-15T03:40:42.571Z,1.21
2016-02-15T03:41:42.479Z,1.16
2016-02-15T03:42:55.248Z,1.27
2016-02-15T03:43:42.548Z,1.12
2016-02-15T03:44:42.518Z,1.18
2016-02-15T03:45:43.146Z,1.24
2016-02-15T03:46:42.556Z,1.13
2016-02-15T03:47:42.558Z,1.18
2016-02-15T03:48:42.592Z,1.25
2016-02-15T03:49:42.454Z,1.21
2016-02-15T03:50:42.614Z,1.1
2016-02-15T03:51:42.647Z,1.27
2016-02-15T03:52:42.634Z,1.2
2016-02-15T03:53:42.668Z,1.12
2016-02-15T03:54:42.671Z,1.24
2016-02-15T03:55:48.955Z,1.24
2016-02-15T03:56:48.972Z,1.18
2016-02-15T03:57:42.710Z,1.22
2016-02-15T03:58:49.197Z,1.24
2016-02-15T03:59:42.747Z,1.25
2016-02-15T04:00:42.733Z,1.22
2016-02-15T04:01:42.768Z,1.18
2016-02-15T04:02:42.771Z,1.16
2016-02-15T04:03:42.774Z,1.25
2016-02-15T04:04:55.541Z,1.18
2016-02-15T04:05:49.074Z,1.18
2016-02-15T04:07:02.141Z,1.25
2016-02-15T04:07:42.830Z,1.24
2016-02-15T04:09:02.130Z,1.24
2016-02-15T04:09:43.055Z,1.28
2016-02-15T04:11:52.435Z,1.25
2016-02-15T04:13:11.628Z,1.28
2016-02-15T04:14:52.506Z,1.25
2016-02-15T04:15:26.821Z,1.2
2016-02-15T04:18:07.701Z,1.21
2016-02-15T04:18:42.048Z,1.31
2016-02-15T04:19:42.159Z,1.28
2016-02-15T04:20:42.069Z,1.32
2016-02-15T04:22:57.402Z,1.34
2016-02-15T04:23:57.420Z,1.32
2016-02-15T04:25:23.707Z,1.34
2016-02-15T04:26:10.007Z,1.39
2016-02-15T04:27:28.775Z,1.34
2016-02-15T04:28:23.293Z,1.4
2016-02-15T04:28:57.480Z,1.38
2016-02-15T04:30:29.111Z,1.39
2016-02-15T04:31:07.330Z,1.39
2016-02-15T04:33:48.385Z,1.4
2016-02-15T04:34:41.935Z,1.45
2016-02-15T04:35:25.796Z,1.34
2016-02-15T04:36:25.908Z,1.38
2016-02-15T04:37:25.848Z,1.38
2016-02-15T04:38:38.446Z,1.42
2016-02-15T04:39:35.370Z,1.27
2016-02-15T04:40:54.606Z,1.42
2016-02-15T04:41:48.157Z,1.36
2016-02-15T04:43:06.737Z,1.3
2016-02-15T04:43:44.974Z,1.34
2016-02-15T04:46:25.873Z,1.28
2016-02-15T04:47:00.326Z,1.38
2016-02-15T04:49:02.831Z,1.36
2016-02-15T04:49:33.990Z,1.36
2016-02-15T04:50:14.806Z,1.31
2016-02-15T04:51:40.480Z,1.32
2016-02-15T04:52:27.374Z,1.3
2016-02-15T04:53:43.564Z,1.27
2016-02-15T04:54:43.581Z,1.25
2016-02-15T04:55:55.695Z,1.27
2016-02-15T04:56:46.634Z,1.24
2016-02-15T04:57:58.761Z,1.27
2016-02-15T04:59:27.486Z,1.27
2016-02-15T05:00:27.504Z,1.2
2016-02-15T05:01:27.508Z,1.28
2016-02-15T05:02:28.182Z,1.24
2016-02-15T05:03:40.590Z,1.25
2016-02-15T05:04:40.109Z,1.22
2016-02-15T05:06:43.801Z,1.18
2016-02-15T05:07:27.680Z,1.22
2016-02-15T05:08:58.994Z,1.18
2016-02-15T05:09:42.872Z,1.24
2016-02-15T05:10:11.594Z,1.22
2016-02-15T05:11:11.597Z,1.2
2016-02-15T05:12:11.599Z,1.25
2016-02-15T05:13:24.352Z,1.24
2016-02-15T05:14:11.651Z,1.27
2016-02-15T05:15:11.654Z,1.14
2016-02-15T05:16:11.641Z,1.16
2016-02-15T05:17:12.268Z,1.18
2016-02-15T05:18:24.428Z,1.18
2016-02-15T05:19:24.431Z,1.14
2016-02-15T05:20:37.386Z,1.21
2016-02-15T05:22:11.939Z,1.16
2016-02-15T05:24:21.553Z,1.18
2016-02-15T05:24:59.881Z,1.14
2016-02-15T05:25:59.931Z,1.13
2016-02-15T05:27:06.777Z,1.12
2016-02-15T05:27:59.921Z,1.14
2016-02-15T05:29:19.160Z,1.12
2016-02-15T05:29:59.957Z,1.12
2016-02-15T05:31:25.650Z,1.13
2016-02-15T05:32:16.622Z,1.09
2016-02-15T05:33:35.218Z,1.1
2016-02-15T05:35:00.908Z,1.07
2016-02-15T05:35:44.786Z,1.09
2016-02-15T05:36:23.117Z,1.1
2016-02-15T05:37:54.494Z,1.06
2016-02-15T05:38:38.371Z,1.03
2016-02-15T05:39:57.610Z,1.02
2016-02-15T05:41:07.174Z,1.07
2016-02-15T05:42:00.926Z,1.09
2016-02-15T05:43:16.120Z,1.03
2016-02-15T05:44:10.495Z,1.1
2016-02-15T05:44:44.935Z,1.03
2016-02-15T05:47:00.190Z,0.99
2016-02-15T05:48:00.209Z,0.99
2016-02-15T05:49:06.477Z,0.94
2016-02-15T05:50:25.936Z,0.95
2016-02-15T05:51:10.607Z,0.95
2016-02-15T05:53:45.053Z,0.89
2016-02-15T05:54:19.415Z,1
2016-02-15T05:55:50.715Z,0.94
2016-02-15T05:56:20.827Z,0.91
2016-02-15T05:57:19.423Z,0.94
2016-02-15T05:58:19.473Z,0.89
2016-02-15T05:59:19.475Z,0.89
2016-02-15T06:00:19.525Z,0.86
2016-02-15T06:01:19.496Z,0.92
2016-02-15T06:02:19.515Z,0.86
2016-02-15T06:03:19.486Z,0.89
2016-02-15T06:04:19.630Z,0.89
2016-02-15T06:05:19.538Z,0.86
2016-02-15T06:06:19.572Z,0.85
2016-02-15T06:07:19.763Z,0.88
2016-02-15T06:08:19.562Z,0.82
2016-02-15T06:09:19.596Z,0.92
2016-02-15T06:10:19.599Z,0.84
2016-02-15T06:11:19.618Z,0.89
2016-02-15T06:12:19.635Z,0.74
2016-02-15T06:13:19.638Z,0.91
2016-02-15T06:14:19.656Z,0.89
2016-02-15T06:15:19.707Z,0.86
2016-02-15T06:16:19.662Z,0.89
2016-02-15T06:17:19.695Z,0.92
2016-02-15T06:18:19.699Z,0.91
2016-02-15T06:19:19.748Z,0.86
2016-02-15T06:20:19.704Z,0.95
2016-02-15T06:21:19.769Z,0.91
2016-02-15T06:22:19.912Z,0.91
2016-02-15T06:23:19.775Z,0.96
2016-02-15T06:24:19.793Z,0.91
2016-02-15T06:25:19.795Z,0.86
2016-02-15T06:26:19.891Z,0.86
2016-02-15T06:27:19.801Z,1.04
2016-02-15T06:28:19.819Z,0.95
2016-02-15T06:29:19.869Z,1
2016-02-15T06:30:19.856Z,1.03
2016-02-15T06:31:19.874Z,1
2016-02-15T06:32:19.877Z,0.95
2016-02-15T06:33:19.927Z,0.94
2016-02-15T06:34:19.897Z,0.95
2016-02-15T06:35:19.932Z,0.96
2016-02-15T06:36:19.935Z,0.96
2016-02-15T06:37:20.046Z,0.99
2016-02-15T06:38:19.956Z,0.96
2016-02-15T06:39:19.989Z,0.96
2016-02-15T06:40:19.991Z,0.92
2016-02-15T06:41:20.199Z,0.96
2016-02-15T06:42:20.029Z,0.95
2016-02-15T06:43:20.156Z,1.02
2016-02-15T06:44:20.065Z,0.94
2016-02-15T06:45:20.037Z,1
2016-02-15T06:46:20.070Z,1
2016-02-15T06:47:20.105Z,0.95
2016-02-15T06:48:20.092Z,0.96
2016-02-15T06:49:20.094Z,0.96
2016-02-15T06:50:20.269Z,0.95
2016-02-15T06:51:20.131Z,0.99
2016-02-15T06:52:20.133Z,0.88
2016-02-15T06:53:20.152Z,1.04
2016-02-15T06:54:20.217Z,1.03
2016-02-15T06:55:26.486Z,1
2016-02-15T06:56:20.801Z,0.95
2016-02-15T06:57:20.225Z,0.96
2016-02-15T06:58:32.947Z,0.95
2016-02-15T06:59:20.215Z,0.95
2016-02-15T07:00:39.499Z,0.95
2016-02-15T07:01:26.548Z,1
2016-02-15T07:02:46.145Z,0.95
2016-02-15T07:03:33.053Z,1
2016-02-15T07:04:49.228Z,0.96
2016-02-15T07:05:55.731Z,1.03
2016-02-15T07:07:01.374Z,1
2016-02-15T07:09:44.257Z,0.89
2016-02-15T07:10:30.104Z,0.91
2016-02-15T07:11:52.372Z,0.99
2016-02-15T07:12:30.843Z,0.89
2016-02-15T07:13:36.425Z,1.04
2016-02-15T07:14:43.099Z,0.89
2016-02-15T07:15:42.945Z,0.95
2016-02-15T07:16:30.183Z,0.85
2016-02-15T07:17:55.873Z,0.91
2016-02-15T07:18:39.735Z,0.89
2016-02-15T07:19:39.909Z,0.92
2016-02-15T07:20:46.053Z,0.99
2016-02-15T07:21:41.227Z,0.89
2016-02-15T07:22:52.543Z,0.96
2016-02-15T07:23:52.546Z,0.86
2016-02-15T07:24:59.016Z,1.03
2016-02-15T07:26:02.113Z,0.96
2016-02-15T07:27:02.115Z,1.02
2016-02-15T07:28:14.245Z,1
2016-02-15T07:29:02.230Z,1.07
2016-02-15T07:30:14.267Z,1.04
2016-02-15T07:31:10.876Z,0.95
2016-02-15T07:31:58.176Z,0.95
2016-02-15T07:32:58.163Z,1
2016-02-15T07:33:58.181Z,1.06
2016-02-15T07:35:04.559Z,1.02
2016-02-15T07:36:04.468Z,1.12
2016-02-15T07:36:58.080Z,1.04
2016-02-15T07:38:10.942Z,1.1
2016-02-15T07:39:04.585Z,1.03
2016-02-15T07:41:07.794Z,1.12
2016-02-15T07:42:07.813Z,1.07
2016-02-15T07:43:09.252Z,1.1
2016-02-15T07:44:09.255Z,1.12
2016-02-15T07:45:07.868Z,1.04
2016-02-15T07:46:09.276Z,1.1
2016-02-15T07:47:07.888Z,1.07
2016-02-15T07:48:27.097Z,1.12
2016-02-15T07:49:10.988Z,1.07
2016-02-15T07:50:10.990Z,1.09
2016-02-15T07:51:11.055Z,1.09
2016-02-15T07:52:11.011Z,1.07
2016-02-15T07:53:11.014Z,1.07
2016-02-15T07:54:11.642Z,1.09
2016-02-15T07:55:11.659Z,1.03
2016-02-15T07:56:23.790Z,1.03
2016-02-15T07:57:11.118Z,1.06
2016-02-15T07:59:20.814Z,1.09
2016-02-15T08:00:20.848Z,1.1
2016-02-15T08:01:20.788Z,1.07
2016-02-15T08:02:27.072Z,1.09
2016-02-15T08:03:33.450Z,1.14
2016-02-15T08:04:20.875Z,1.1
2016-02-15T08:05:40.064Z,1.18
2016-02-15T08:06:27.067Z,1.1
2016-02-15T08:08:33.728Z,1.16
2016-02-15T08:09:20.794Z,1.14
2016-02-15T08:10:40.015Z,1.18
2016-02-15T08:11:33.736Z,1.14
2016-02-15T08:12:20.958Z,1.21
2016-02-15T08:13:40.071Z,1.13
2016-02-15T08:14:22.292Z,1.2
2016-02-15T08:16:29.187Z,1.16
2016-02-15T08:17:20.894Z,1.25
2016-02-15T08:18:21.568Z,1.13
2016-02-15T08:19:27.196Z,1.24
2016-02-15T08:20:22.385Z,1.18
2016-02-15T08:21:20.967Z,1.24
2016-02-15T08:22:20.860Z,1.32
2016-02-15T08:23:33.723Z,1.2
2016-02-15T08:24:21.615Z,1.13
2016-02-15T08:25:21.070Z,1.21
2016-02-15T08:26:21.856Z,1.14
2016-02-15T08:27:21.029Z,1.2
2016-02-15T08:28:21.672Z,1.18
2016-02-15T08:29:33.817Z,1.18
2016-02-15T08:30:21.694Z,1.16
2016-02-15T08:31:33.853Z,1.21
2016-02-15T08:32:21.730Z,1.14
2016-02-15T08:33:40.436Z,1.18
2016-02-15T08:34:24.314Z,1.28
2016-02-15T08:35:50.005Z,1.28
2016-02-15T08:36:24.929Z,1.24
2016-02-15T08:37:24.369Z,1.14
2016-02-15T08:38:36.949Z,1.27
2016-02-15T08:39:37.202Z,1.21
2016-02-15T08:40:43.612Z,1.22
2016-02-15T08:41:43.630Z,1.21
2016-02-15T08:42:24.413Z,1.18
2016-02-15T08:43:43.636Z,1.24
2016-02-15T08:44:24.466Z,1.27
2016-02-15T08:45:43.860Z,1.28
2016-02-15T08:46:55.799Z,1.31
2016-02-15T08:47:24.490Z,1.39
2016-02-15T08:48:24.492Z,1.42
2016-02-15T08:49:24.511Z,1.39
2016-02-15T08:50:24.529Z,1.32
2016-02-15T08:51:37.281Z,1.39
2016-02-15T08:52:24.551Z,1.39
2016-02-15T08:53:24.568Z,1.34
2016-02-15T08:54:24.586Z,1.36
2016-02-15T08:55:30.902Z,1.3
2016-02-15T08:56:43.826Z,1.28
2016-02-15T08:57:43.907Z,1.32
2016-02-15T08:58:50.301Z,1.31
2016-02-15T08:59:43.897Z,1.32
2016-02-15T09:00:24.697Z,1.36
2016-02-15T09:01:24.684Z,1.36
2016-02-15T09:02:30.967Z,1.36
2016-02-15T09:03:24.705Z,1.3
2016-02-15T09:04:43.925Z,1.39
2016-02-15T09:05:24.742Z,1.42
2016-02-15T09:06:24.744Z,1.53
2016-02-15T09:07:31.028Z,1.5
2016-02-15T09:08:24.780Z,1.56
2016-02-15T09:09:24.783Z,1.39
2016-02-15T09:10:24.802Z,1.5
2016-02-15T09:11:24.913Z,1.53
2016-02-15T09:12:24.838Z,1.58
2016-02-15T09:13:26.263Z,1.6
2016-02-15T09:14:24.875Z,1.58
2016-02-15T09:15:27.740Z,1.57
2016-02-15T09:16:24.900Z,1.61
2016-02-15T09:17:37.637Z,1.63
2016-02-15T09:18:24.920Z,1.68
2016-02-15T09:19:50.595Z,1.85
2016-02-15T09:20:37.692Z,1.84
2016-02-15T09:21:24.960Z,1.85
2016-02-15T09:23:21.966Z,1.78
2016-02-15T09:23:37.575Z,1.75
2016-02-15T09:24:47.264Z,1.78
2016-02-15T09:25:47.283Z,1.64
2016-02-15T09:26:34.552Z,1.63
2016-02-15T09:27:34.585Z,1.58
2016-02-15T09:28:34.635Z,1.61
2016-02-15T09:29:35.216Z,1.6
2016-02-15T09:30:35.218Z,1.7
2016-02-15T09:32:05.924Z,1.75
2016-02-15T09:32:49.802Z,1.64
2016-02-15T09:34:09.038Z,1.39
2016-02-15T09:34:56.104Z,1.52
2016-02-15T09:36:15.516Z,1.39
2016-02-15T09:37:02.610Z,1.45
2016-02-15T09:38:15.568Z,1.32
2016-02-15T09:38:49.896Z,1.34
2016-02-15T09:39:49.914Z,1.32
2016-02-15T09:40:49.917Z,1.34
2016-02-15T09:41:49.935Z,1.34
2016-02-15T09:43:15.440Z,1.36
2016-02-15T09:43:49.972Z,1.42
2016-02-15T09:44:49.991Z,1.45
2016-02-15T09:45:56.259Z,1.39
2016-02-15T09:46:50.136Z,1.39
2016-02-15T09:48:09.218Z,1.5
2016-02-15T09:48:56.298Z,1.49
2016-02-15T09:49:50.066Z,1.66
2016-02-15T09:51:02.867Z,1.7
2016-02-15T09:51:56.353Z,1.74
2016-02-15T09:53:09.294Z,1.85
2016-02-15T09:53:50.109Z,1.88
2016-02-15T09:55:15.817Z,1.93
2016-02-15T09:55:56.458Z,1.82
2016-02-15T09:57:21.838Z,2.03
2016-02-15T09:58:05.713Z,2.08
2016-02-15T09:59:24.952Z,2
2016-02-15T10:00:05.765Z,2.07
2016-02-15T10:02:21.071Z,2.04
2016-02-15T10:03:21.057Z,2.01
2016-02-15T10:04:21.076Z,2.15
2016-02-15T10:05:21.094Z,1.95
2016-02-15T10:06:21.096Z,2.01
2016-02-15T10:07:27.349Z,2.01
2016-02-15T10:08:27.383Z,2.1
2016-02-15T10:09:40.293Z,2
2016-02-15T10:10:33.826Z,2.16
2016-02-15T10:12:23.722Z,2.37
2016-02-15T10:12:36.300Z,2.34
2016-02-15T10:13:36.350Z,2.37
2016-02-15T10:14:49.055Z,2.44
2016-02-15T10:15:49.106Z,2.4
2016-02-15T10:16:49.092Z,2.26
2016-02-15T10:17:55.626Z,2.14
2016-02-15T10:18:55.612Z,1.93
2016-02-15T10:20:02.069Z,1.95
2016-02-15T10:21:02.075Z,1.97
2016-02-15T10:22:17.257Z,1.95
2016-02-15T10:23:08.257Z,1.78
2016-02-15T10:24:52.480Z,1.78
2016-02-15T10:25:24.229Z,1.88
2016-02-15T10:26:24.227Z,1.98
2016-02-15T10:27:24.349Z,2
2016-02-15T10:28:36.989Z,1.97
2016-02-15T10:29:37.068Z,2
2016-02-15T10:30:24.287Z,2.1
2016-02-15T10:31:49.960Z,2.05
2016-02-15T10:32:24.320Z,2.01
2016-02-15T10:33:49.977Z,2.1
2016-02-15T10:34:34.011Z,2.14
2016-02-15T10:35:59.669Z,2.03
2016-02-15T10:36:33.984Z,2.05
2016-02-15T10:38:00.971Z,1.79
2016-02-15T10:38:40.301Z,1.79
2016-02-15T10:40:05.335Z,1.76
2016-02-15T10:40:33.993Z,1.85
2016-02-15T10:41:33.996Z,1.89
2016-02-15T10:42:33.967Z,1.93
2016-02-15T10:43:34.016Z,1.95
2016-02-15T10:44:34.003Z,2.14
2016-02-15T10:45:34.005Z,2.01
2016-02-15T10:46:34.008Z,2.04
2016-02-15T10:47:34.027Z,1.98
2016-02-15T10:48:40.451Z,2
2016-02-15T10:49:40.346Z,2
2016-02-15T10:50:34.191Z,1.86
2016-02-15T10:51:46.818Z,1.84
2016-02-15T10:52:34.229Z,1.95
2016-02-15T10:53:53.340Z,2.05
2016-02-15T10:54:34.217Z,2.07
2016-02-15T10:55:59.862Z,2.04
2016-02-15T10:56:46.910Z,2.07
2016-02-15T10:58:05.507Z,2.15
2016-02-15T10:58:46.948Z,2.12
2016-02-15T10:59:34.215Z,2.21
2016-02-15T11:01:43.814Z,2.25
2016-02-15T11:03:03.005Z,2.21
2016-02-15T11:03:46.992Z,2.05
2016-02-15T11:05:06.181Z,1.97
2016-02-15T11:05:47.060Z,2.01
2016-02-15T11:06:47.000Z,1.95
2016-02-15T11:07:47.049Z,1.84
2016-02-15T11:08:59.756Z,2.05
2016-02-15T11:09:47.024Z,2
2016-02-15T11:11:06.260Z,2.14
2016-02-15T11:11:53.248Z,2.15
2016-02-15T11:12:47.016Z,1.93
2016-02-15T11:14:06.238Z,2.04
2016-02-15T11:14:50.131Z,2.01
2016-02-15T11:15:50.165Z,2.07
2016-02-15T11:16:50.168Z,2.1
2016-02-15T11:17:50.185Z,2.04
2016-02-15T11:18:56.454Z,2.04
2016-02-15T11:19:50.191Z,2.08
2016-02-15T11:20:51.646Z,2
2016-02-15T11:21:50.244Z,2
2016-02-15T11:23:09.449Z,1.95
2016-02-15T11:23:57.951Z,2.04
2016-02-15T11:25:21.598Z,1.97
2016-02-15T11:25:59.863Z,2
2016-02-15T11:26:59.881Z,2.03
2016-02-15T11:28:00.088Z,2.08
2016-02-15T11:29:31.218Z,2
2016-02-15T11:29:59.921Z,1.93
2016-02-15T11:30:59.940Z,2.03
2016-02-15T11:32:06.239Z,2.04
2016-02-15T11:33:12.711Z,1.75
2016-02-15T11:34:12.744Z,1.95
2016-02-15T11:35:00.012Z,1.85
2016-02-15T11:36:19.236Z,1.89
2016-02-15T11:37:06.174Z,1.78
2016-02-15T11:38:28.820Z,1.75
2016-02-15T11:39:12.711Z,1.88
2016-02-15T11:40:12.744Z,1.93
2016-02-15T11:41:12.747Z,1.92
2016-02-15T11:42:12.750Z,1.92
2016-02-15T11:43:12.988Z,1.89
2016-02-15T11:44:32.602Z,1.71
2016-02-15T11:45:19.136Z,1.95
2016-02-15T11:46:13.027Z,1.85
2016-02-15T11:47:12.827Z,1.78
2016-02-15T11:48:13.063Z,1.86
2016-02-15T11:49:13.066Z,1.98
2016-02-15T11:50:19.180Z,2.01
2016-02-15T11:51:13.009Z,2.12
2016-02-15T11:52:25.671Z,2.04
2016-02-15T11:53:19.251Z,1.85
2016-02-15T11:54:12.938Z,2
2016-02-15T11:55:13.051Z,2.05
2016-02-15T11:56:12.991Z,2.03
2016-02-15T11:57:25.934Z,2.1
2016-02-15T11:58:19.296Z,2.21
2016-02-15T11:59:38.689Z,2.19
2016-02-15T12:00:13.033Z,2.19
2016-02-15T12:01:44.367Z,2
2016-02-15T12:02:25.792Z,1.97
2016-02-15T12:03:13.088Z,1.81
2016-02-15T12:04:13.075Z,1.66
2016-02-15T12:05:13.109Z,1.52
2016-02-15T12:06:13.456Z,1.74
2016-02-15T12:07:13.130Z,1.75
2016-02-15T12:08:13.164Z,1.75
2016-02-15T12:09:13.386Z,1.63
2016-02-15T12:10:25.922Z,1.63
2016-02-15T12:11:13.219Z,1.71
2016-02-15T12:12:32.474Z,1.63
2016-02-15T12:13:13.255Z,1.71
2016-02-15T12:14:13.258Z,1.7
2016-02-15T12:15:13.277Z,1.7
2016-02-15T12:16:13.280Z,1.7
2016-02-15T12:17:20.816Z,1.68
2016-02-15T12:18:13.300Z,1.71
2016-02-15T12:19:13.397Z,1.64
2016-02-15T12:20:19.605Z,1.66
2016-02-15T12:21:13.418Z,1.56
2016-02-15T12:22:32.439Z,1.46
2016-02-15T12:23:13.424Z,1.61
2016-02-15T12:24:13.394Z,1.66
2016-02-15T12:25:26.150Z,1.6
2016-02-15T12:26:13.416Z,1.52
2016-02-15T12:27:13.449Z,1.53
2016-02-15T12:28:13.484Z,1.57
2016-02-15T12:29:13.470Z,1.78
2016-02-15T12:30:13.504Z,1.75
2016-02-15T12:31:26.259Z,1.64
2016-02-15T12:32:19.778Z,1.49
2016-02-15T12:33:32.796Z,1.57
2016-02-15T12:34:42.142Z,1.52
2016-02-15T12:35:35.895Z,1.53
2016-02-15T12:36:55.148Z,1.48
2016-02-15T12:37:36.698Z,1.61
2016-02-15T12:39:38.656Z,1.61
2016-02-15T12:39:51.219Z,1.64
2016-02-15T12:40:51.362Z,1.53
2016-02-15T12:41:57.505Z,1.56
2016-02-15T12:42:57.650Z,1.56
2016-02-15T12:44:10.605Z,1.56
2016-02-15T12:45:10.608Z,1.64
2016-02-15T12:46:48.316Z,1.49
2016-02-15T12:47:26.599Z,1.66
2016-02-15T12:48:26.430Z,1.58
2016-02-15T12:49:39.386Z,1.68
2016-02-15T12:50:27.233Z,1.75
2016-02-15T12:51:45.829Z,1.84
2016-02-15T12:52:39.379Z,1.82
2016-02-15T12:53:26.694Z,1.85
2016-02-15T12:54:26.696Z,1.82
2016-02-15T12:55:26.684Z,1.92
2016-02-15T12:56:26.733Z,1.75
2016-02-15T12:57:26.721Z,1.75
2016-02-15T12:58:39.457Z,1.93
2016-02-15T12:59:26.725Z,1.84
2016-02-15T13:00:45.948Z,1.79
2016-02-15T13:01:26.778Z,1.78
2016-02-15T13:02:26.780Z,1.88
2016-02-15T13:03:27.440Z,1.75
2016-02-15T13:04:28.083Z,1.78
2016-02-15T13:05:39.601Z,1.84
2016-02-15T13:06:26.870Z,1.71
2016-02-15T13:07:46.075Z,1.79
2016-02-15T13:08:39.609Z,1.58
2016-02-15T13:10:29.505Z,1.48
2016-02-15T13:10:51.520Z,1.58
2016-02-15T13:11:45.164Z,1.64
2016-02-15T13:12:45.183Z,1.58
2016-02-15T13:13:45.170Z,1.74
2016-02-15T13:14:45.188Z,1.71
2016-02-15T13:15:45.221Z,1.64
2016-02-15T13:16:45.428Z,1.61
2016-02-15T13:17:45.227Z,1.42
2016-02-15T13:18:45.463Z,1.49
2016-02-15T13:19:45.280Z,1.5
2016-02-15T13:20:45.313Z,1.57
2016-02-15T13:21:45.316Z,1.7
2016-02-15T13:22:45.319Z,1.76
2016-02-15T13:23:45.555Z,1.74
2016-02-15T13:24:45.355Z,1.61
2016-02-15T13:25:45.374Z,1.74
2016-02-15T13:26:58.110Z,1.76
2016-02-15T13:27:51.645Z,1.75
2016-02-15T13:29:04.601Z,1.89
2016-02-15T13:29:58.166Z,1.81
2016-02-15T13:31:11.137Z,1.82
2016-02-15T13:32:02.234Z,1.93
2016-02-15T13:33:59.082Z,1.89
2016-02-15T13:35:30.416Z,1.74
2016-02-15T13:36:09.306Z,1.7
2016-02-15T13:37:09.326Z,1.63
2016-02-15T13:38:15.609Z,1.67
2016-02-15T13:39:09.361Z,1.63
2016-02-15T13:40:09.521Z,1.27
2016-02-15T13:41:22.119Z,1.25
2016-02-15T13:42:09.432Z,1.25
2016-02-15T13:43:28.609Z,1.16
2016-02-15T13:44:09.469Z,1.13
2016-02-15T13:46:24.633Z,1.25
2016-02-15T13:47:24.652Z,1.3
2016-02-15T13:48:24.669Z,1.3
2016-02-15T13:49:24.672Z,1.4
2016-02-15T13:50:30.957Z,1.4
2016-02-15T13:51:37.459Z,1.42
2016-02-15T13:52:43.931Z,1.24
2016-02-15T13:53:24.746Z,1.28
2016-02-15T13:54:50.435Z,1.39
2016-02-15T13:55:24.752Z,1.43
2016-02-15T13:57:37.537Z,1.36
2016-02-15T13:58:25.432Z,1.24